HE26 weather

Wadi Abu Shihat
Red Sea Governorate, Egypt

Public forecast

Using degrees Celsius for public forecast. Weather courtesy of forecast.io.

METAR (pilot weather report)

Closest report is Hurghada International Airport, 52.0 nm (96.4 km) NE. Retrieved 2019/04/23 17:00 UTC (35 minutes ago):

HEGN 231700Z 34012KT CAVOK 23/08 Q1017 NOSIG

TAF (pilot weather forecast)

Closest forecast is Hurghada International Airport, 52.0 nm (96.4 km) NE. Retrieved 2019/04/23 12:59 UTC (5 hours ago):

TAF HEGN 231100Z 2312/2418 01008G20KT CAVOK